• Join FlightAware (Why Join?)
  • Login
  • US Flag 
06:06PM EDT


 

Airport Tracker/Info


-or-


 

Live Flight TrackerFlight Track Log ✈ C-FTOH ✈ 23-Apr-2013 ✈ CYOW - MUVR / VRA

Flight Track Log - Related Links

Times and Time Zones

All times are in EDT time to prevent confusion due to time zone crossing. See the C-FTOH flight status page for this flight to view local times or setup timezone preferences in your user account.

Time Position Orientation Groundspeed Altitude Reporting Facility
EDT Latitude Longitude Course Direction KTS MPH feet Rate Location/Type
09:22AM 44.6425 -75.8771 197° South  Level FlightAware Approximate
09:22AM 45.1890 -75.5490 197° South 334 384 14,700  Level FlightAware
09:22AM 45.1300 -75.5690 193° South 344 396 17,100 3,300 Climbing FlightAware
09:23AM 44.5320 -75.9245 197° South  Level FlightAware Approximate
09:23AM 45.0460 -75.5970 193° South 361 415 19,700  Level FlightAware
09:24AM 44.9590 -75.6260 193° South 382 440 22,400 2,460 Climbing FlightAware
09:25AM 44.8910 -75.6480 193° South 382 440 23,400 2,280 Climbing FlightAware
09:26AM 44.8100 -75.6750 193° South 394 453 25,700 2,820 Climbing FlightAware
09:26AM 44.7430 -75.6970 193° South 397 457 27,400 1,620 Climbing FlightAware
09:27AM 44.6560 -75.7260 193° South 396 456 28,000 420 Climbing FlightAware
09:28AM 44.5820 -75.7500 193° South 396 456 28,000  Level FlightAware
09:28AM 44.5140 -75.7720 193° South 405 466 28,000  Level FlightAware
09:29AM 44.4370 -75.7970 193° South 396 456 28,000 240 Level FlightAware
09:30AM 44.3570 -75.8240 194° South 403 464 28,400 1,320 Climbing FlightAware
09:30AM 44.2840 -75.8470 193° South 407 468 29,900 2,100 Climbing FlightAware
09:31AM 44.2100 -75.8710 193° South 416 479 31,200 1,920 Climbing FlightAware
09:32AM 44.1250 -75.8990 193° South 418 481 32,700 2,460 Climbing FlightAware
09:33AM 44.0440 -75.9250 193° South 399 459 34,900 2,580 Climbing FlightAware
09:33AM 43.9720 -75.9480 193° South 389 448 36,400 1,800 Climbing FlightAware
09:34AM 43.9010 -75.9710 193° South 392 451 37,300 1,320 Climbing FlightAware
09:35AM 43.8310 -75.9930 193° South 391 450 38,200 1,260 Climbing FlightAware
09:35AM 43.7510 -76.0190 193° South 393 452 39,100 960 Climbing FlightAware
09:36AM 43.6710 -76.0440 193° South 399 459 39,700 600 Climbing FlightAware
09:37AM 43.5990 -76.0670 193° South 404 465 40,000 180 Climbing FlightAware
09:37AM 43.5270 -76.0900 193° South 404 465 40,000  Level FlightAware
09:38AM 43.4460 -76.1160 193° South 404 465 40,000  Level FlightAware
09:39AM 43.3730 -76.1390 193° South 404 465 40,000  Level FlightAware
09:40AM 43.2890 -76.1650 193° South 403 464 40,000  Level FlightAware
09:40AM 43.2180 -76.1870 193° South 403 464 40,000  Level FlightAware
09:41AM 43.1390 -76.2230 198° South 397 457 40,000  Level FlightAware
09:42AM 43.0770 -76.2740 211° Southwest 396 456 40,000  Level FlightAware
09:42AM 43.0140 -76.3260 211° Southwest 398 458 40,000  Level FlightAware
09:43AM 42.9430 -76.3840 211° Southwest 397 457 40,000  Level FlightAware
09:44AM 42.8800 -76.4360 211° Southwest 398 458 40,000  Level FlightAware
09:44AM 42.8190 -76.4870 212° Southwest 399 459 40,000  Level FlightAware
09:45AM 42.7450 -76.5470 211° Southwest 399 459 40,000  Level FlightAware
09:46AM 42.6820 -76.5990 211° Southwest 399 459 40,000  Level FlightAware
09:46AM 42.6190 -76.6490 210° Southwest 400 460 40,000  Level FlightAware
09:47AM 42.5480 -76.7080 211° Southwest 401 461 40,000  Level FlightAware
09:48AM 42.4840 -76.7590 210° Southwest 403 464 40,000  Level FlightAware
09:49AM 42.4120 -76.8180 211° Southwest 404 465 40,000  Level FlightAware
09:49AM 42.3470 -76.8700 211° Southwest 404 465 40,000  Level FlightAware
09:50AM 42.2820 -76.9220 211° Southwest 405 466 40,000  Level FlightAware
09:51AM 42.2110 -76.9800 211° Southwest 405 466 40,000  Level FlightAware
09:51AM 42.1450 -77.0330 211° Southwest 404 465 40,000  Level FlightAware
09:52AM 42.0730 -77.0900 210° Southwest 404 465 40,000  Level FlightAware
09:53AM 42.0090 -77.1410 211° Southwest 403 464 40,000  Level FlightAware
09:53AM 41.9470 -77.1900 210° Southwest 402 463 40,000  Level FlightAware
09:54AM 41.8720 -77.2490 210° Southwest 402 463 40,000  Level FlightAware
09:55AM 41.8110 -77.2970 210° Southwest 401 461 40,000  Level FlightAware
09:56AM 41.7370 -77.3560 211° Southwest 400 460 40,000  Level FlightAware
09:56AM 41.6800 -77.4010 211° Southwest 400 460 40,000  Level FlightAware
09:57AM 41.6120 -77.4540 210° Southwest 399 459 40,000  Level FlightAware
09:58AM 41.5390 -77.5120 211° Southwest 401 461 40,000  Level FlightAware
09:58AM 41.4740 -77.5620 210° Southwest 402 463 40,000  Level FlightAware
09:59AM 41.4120 -77.6100 210° Southwest 403 464 40,000  Level FlightAware
10:00AM 41.3430 -77.6640 210° Southwest 405 466 40,000  Level FlightAware
10:00AM 41.2780 -77.7140 210° Southwest 407 468 40,000  Level FlightAware
10:01AM 41.1980 -77.7760 210° Southwest 408 470 40,000  Level FlightAware
10:02AM 41.1330 -77.8260 210° Southwest 409 471 40,000  Level FlightAware
10:03AM 41.0590 -77.8830 210° Southwest 409 471 40,000  Level FlightAware
10:03AM 40.9960 -77.9320 210° Southwest 410 472 40,000  Level FlightAware
10:04AM 40.9310 -77.9840 211° Southwest 410 472 40,000  Level FlightAware
10:05AM 40.8740 -78.0590 225° Southwest 410 472 40,000  Level FlightAware
10:05AM 40.8210 -78.1420 230° Southwest 411 473 40,000  Level FlightAware
10:06AM 40.7780 -78.2090 230° Southwest 411 473 40,000  Level FlightAware
10:07AM 40.7280 -78.2850 229° Southwest 411 473 40,000  Level FlightAware
10:07AM 40.6680 -78.3790 230° Southwest 412 474 40,000  Level FlightAware
10:08AM 40.6110 -78.4670 230° Southwest 415 478 40,000  Level FlightAware
10:09AM 40.5610 -78.5440 229° Southwest 416 479 40,000  Level FlightAware
10:10AM 40.5110 -78.6210 230° Southwest 416 479 40,000  Level FlightAware
10:10AM 40.4620 -78.6960 229° Southwest 417 480 40,000  Level FlightAware
10:11AM 40.4050 -78.7840 230° Southwest 418 481 40,000  Level FlightAware
10:12AM 40.3500 -78.8670 229° Southwest 417 480 40,000  Level FlightAware
10:12AM 40.2970 -78.9470 229° Southwest 418 481 40,000  Level FlightAware
10:13AM 40.2350 -79.0420 229° Southwest 419 482 40,000  Level FlightAware
10:14AM 40.1890 -79.1110 229° Southwest 418 481 40,000  Level FlightAware
10:14AM 40.1360 -79.1910 229° Southwest 419 482 40,000  Level FlightAware
10:15AM 40.0770 -79.2790 229° Southwest 418 481 40,000  Level FlightAware
10:16AM 40.0310 -79.3480 229° Southwest 419 482 40,000  Level FlightAware
10:17AM 39.9780 -79.4270 229° Southwest 417 480 40,000  Level FlightAware
10:17AM 39.9170 -79.5190 229° Southwest 410 472 40,000  Level FlightAware
10:18AM 39.8790 -79.5760 229° Southwest 410 472 40,000  Level FlightAware
10:19AM 39.8020 -79.6890 228° Southwest 410 472 40,000  Level FlightAware
10:20AM 39.7550 -79.7590 229° Southwest 411 473 40,000  Level FlightAware
10:21AM 39.6660 -79.8900 229° Southwest 415 478 40,000  Level FlightAware
10:21AM 39.6120 -79.9690 228° Southwest 417 480 40,000  Level FlightAware
10:22AM 39.5520 -80.0570 229° Southwest 418 481 40,000  Level FlightAware
10:23AM 39.4820 -80.1160 213° Southwest 433 498 40,000  Level FlightAware
10:24AM 39.3970 -80.1150 179° South 439 505 40,000  Level FlightAware
10:24AM 39.3090 -80.1100 177° South 434 499 40,000  Level FlightAware
10:25AM 39.2280 -80.1040 177° South 434 499 40,000  Level FlightAware
10:26AM 39.1500 -80.0990 177° South 434 499 40,000  Level FlightAware
10:26AM 39.0550 -80.0930 177° South 434 499 40,000  Level FlightAware
10:27AM 38.9690 -80.0870 177° South 434 499 40,000  Level FlightAware
10:28AM 38.8890 -80.0950 184° South 428 493 40,000  Level FlightAware
10:28AM 38.8120 -80.1220 195° South 429 494 40,000  Level FlightAware
10:29AM 38.7350 -80.1490 195° South 430 495 40,000  Level FlightAware
10:30AM 38.6570 -80.1760 195° South 431 496 40,000  Level FlightAware
10:31AM 38.5690 -80.2070 195° South 434 499 40,000  Level FlightAware
10:31AM 38.4850 -80.2360 195° South 437 503 40,000  Level FlightAware
10:32AM 38.4060 -80.2640 196° South 438 504 40,000  Level FlightAware
10:33AM 38.3160 -80.2950 195° South 440 506 40,000  Level FlightAware
10:33AM 38.2360 -80.3230 195° South 440 506 40,000  Level FlightAware
10:34AM 38.1580 -80.3500 195° South 440 506 40,000  Level FlightAware
10:35AM 38.0720 -80.3790 195° South 439 505 40,000  Level FlightAware
10:35AM 37.9930 -80.4060 195° South 437 503 40,000  Level FlightAware
10:36AM 37.9140 -80.4330 195° South 436 502 40,000  Level FlightAware
10:37AM 37.8280 -80.4630 195° South 435 501 40,000  Level FlightAware
10:38AM 37.7490 -80.4900 195° South 436 502 40,000  Level FlightAware
10:38AM 37.6630 -80.5190 195° South 434 499 40,000  Level FlightAware
10:39AM 37.5910 -80.5440 195° South 433 498 40,000  Level FlightAware
10:40AM 37.5050 -80.5730 195° South 434 499 40,000  Level FlightAware
10:40AM 37.4390 -80.5950 195° South 434 499 40,000  Level FlightAware
10:41AM 37.3730 -80.6170 195° South 434 499 40,000  Level FlightAware
10:42AM 37.3070 -80.6390 195° South 434 499 40,000  Level FlightAware
10:42AM 37.2410 -80.6620 196° South 434 499 40,000  Level FlightAware
10:43AM 37.1750 -80.6840 195° South 434 499 40,000  Level FlightAware
10:43AM 37.0747 -80.7137 193° South 432 497 40,000  Level FlightAware ADS-B
10:44AM 37.0121 -80.7212 185° South 433 498 40,000  Level FlightAware ADS-B
10:50AM 36.3226 -80.7962 185° South 433 498 40,000  Level FlightAware ADS-B
10:52AM 36.0320 -80.8280 185° South 441 507 40,000  Level FlightAware
10:53AM 35.9620 -80.8370 186° South 441 507 40,000  Level FlightAware
10:53AM 35.8759 -80.8440 184° South 443 510 40,000  Level FlightAware ADS-B
10:54AM 35.8107 -80.8510 185° South 444 511 40,000  Level FlightAware ADS-B
10:55AM 35.7210 -80.8610 185° South 447 514 40,000  Level FlightAware
10:55AM 35.6280 -80.8700 184° South 449 517 40,000  Level FlightAware
10:56AM 35.5450 -80.8790 185° South 451 519 40,000  Level FlightAware
10:57AM 35.4626 -80.8879 185° South 445 512 40,000  Level FlightAware ADS-B
10:57AM 35.3641 -80.8983 185° South 453 521 40,000  Level FlightAware ADS-B
10:58AM 35.2999 -80.9051 185° South 454 522 40,000  Level FlightAware ADS-B
10:58AM 35.2344 -80.9120 185° South 454 522 40,000  Level FlightAware ADS-B
11:00AM 35.1130 -80.9250 185° South 455 524 40,000  Level FlightAware
11:00AM 35.0240 -80.9340 185° South 455 524 40,000  Level FlightAware
11:01AM 34.9390 -80.9430 185° South 455 524 40,000  Level FlightAware
11:02AM 34.8440 -80.9530 185° South 453 521 40,000  Level FlightAware
11:02AM 34.7560 -80.9620 185° South 451 519 40,000  Level FlightAware
11:03AM 34.6870 -80.9690 185° South 450 518 40,000  Level FlightAware
11:04AM 34.5710 -80.9810 185° South 447 514 40,000  Level FlightAware
11:04AM 34.4910 -80.9890 185° South 445 512 40,000  Level FlightAware
11:05AM 34.4120 -80.9970 185° South 443 510 40,000  Level FlightAware
11:06AM 34.3050 -81.0090 185° South 441 507 40,000  Level FlightAware
11:07AM 34.2050 -81.0190 185° South 440 506 40,000  Level FlightAware
11:07AM 34.1360 -81.0260 185° South 443 510 40,000  Level FlightAware
11:08AM 34.0300 -81.0360 184° South 443 510 40,000  Level FlightAware
11:09AM 33.9490 -81.0450 185° South 443 510 40,000  Level FlightAware
11:10AM 33.8590 -81.0540 185° South 443 510 40,000  Level FlightAware
11:10AM 33.7850 -81.0610 184° South 445 512 40,000  Level FlightAware
11:11AM 33.6850 -81.0690 184° South 445 512 40,000  Level FlightAware
11:12AM 33.5830 -81.0780 184° South 445 512 40,000  Level FlightAware
11:12AM 33.5090 -81.0840 184° South 444 511 40,000  Level FlightAware
11:13AM 33.4070 -81.0930 184° South 444 511 40,000  Level FlightAware
11:14AM 33.3250 -81.1000 184° South 443 510 40,000  Level FlightAware
11:15AM 33.2380 -81.1070 184° South 443 510 40,000  Level FlightAware
11:15AM 33.1650 -81.1130 184° South 444 511 40,000  Level FlightAware
11:17AM 32.9870 -81.1280 184° South 449 517 40,000  Level FlightAware
11:18AM 32.8730 -81.1380 184° South 448 516 40,000  Level FlightAware
11:19AM 32.6910 -81.1530 184° South 448 516 40,000  Level FlightAware
11:20AM 32.5290 -81.1680 184° South 447 514 40,000  Level FlightAware
11:21AM 32.5120 -81.1690 183° South 447 514 40,000  Level FlightAware
11:22AM 32.4420 -81.1770 186° South 447 514 40,000  Level FlightAware
11:23AM 32.2170 -81.1930 183° South 450 518 40,000  Level FlightAware
11:24AM 32.1000 -81.2000 183° South 453 521 40,000  Level FlightAware
11:25AM 32.0130 -81.1950 177° South 458 527 40,000  Level FlightAware
11:25AM 31.9080 -81.1920 179° South 458 527 40,000  Level FlightAware
11:26AM 31.8250 -81.1890 178° South 456 525 40,000  Level FlightAware
11:27AM 31.7480 -81.1860 178° South 455 524 40,000  Level FlightAware
11:28AM 31.6570 -81.1830 178° South 454 522 40,000  Level FlightAware
11:28AM 31.5810 -81.1820 179° South 454 522 40,000  Level FlightAware
11:29AM 31.4490 -81.1770 178° South 453 521 40,000  Level FlightAware
11:30AM 31.3450 -81.1740 179° South 453 521 40,000  Level FlightAware
11:31AM 31.2640 -81.1720 179° South 452 520 40,000  Level FlightAware
11:31AM 31.1960 -81.1690 178° South 452 520 40,000  Level FlightAware
11:32AM 31.1070 -81.1650 178° South 452 520 40,000  Level FlightAware
11:33AM 31.0360 -81.1620 178° South 452 520 40,000  Level FlightAware
11:33AM 30.9650 -81.1600 179° South 452 520 40,000  Level FlightAware
11:34AM 30.8940 -81.1570 178° South 452 520 40,000  Level FlightAware
11:35AM 30.8050 -81.1530 178° South 452 520 40,000  Level FlightAware
11:35AM 30.7340 -81.1500 178° South 452 520 40,000  Level FlightAware
11:36AM 30.6630 -81.1470 178° South 452 520 40,000  Level FlightAware
11:37AM 30.5920 -81.1440 178° South 452 520 40,000  Level FlightAware
11:37AM 30.5210 -81.1420 179° South 452 520 40,000  Level FlightAware
11:38AM 30.4320 -81.1380 178° South 452 520 40,000  Level FlightAware
11:39AM 30.3610 -81.1350 178° South 452 520 40,000  Level FlightAware
11:40AM 30.2900 -81.1320 178° South 452 520 40,000  Level FlightAware
11:40AM 30.2190 -81.1290 178° South 452 520 40,000 -120 Level FlightAware
11:41AM 29.9528 -80.9317 178° South 467 537 39,900  Descending Jacksonville Center
11:47AM 29.1920 -80.7810 178° South 454 522 40,000  Climbing FlightAware
11:48AM 29.1030 -80.7640 171° South 453 521 40,000  Level FlightAware
11:48AM 29.0180 -80.7470 170° South 460 529 40,000  Level FlightAware
11:49AM 28.9340 -80.7310 171° South 458 527 40,000  Level FlightAware
11:50AM 28.8550 -80.7150 170° South 458 527 40,000  Level FlightAware
11:50AM 28.7480 -80.6950 171° South 460 529 40,000  Level FlightAware
11:51AM 28.6790 -80.6810 170° South 453 521 40,000  Level FlightAware
11:52AM 28.5840 -80.6630 171° South 454 522 40,000  Level FlightAware
11:53AM 28.4790 -80.6430 170° South 455 524 40,000  Level FlightAware
11:53AM 28.3980 -80.6270 170° South 455 524 40,000  Level FlightAware
11:54AM 28.3100 -80.6100 170° South 455 524 40,000  Level FlightAware
11:55AM 28.2180 -80.5930 171° South 453 521 40,000  Level FlightAware
11:55AM 28.1410 -80.5780 170° South 459 528 40,000  Level FlightAware
11:56AM 28.0090 -80.5530 171° South 456 525 40,000  Level FlightAware
11:57AM 27.9330 -80.5380 170° South 456 525 40,000  Level FlightAware
11:58AM 27.8410 -80.5210 171° South 455 524 40,000  Level FlightAware
11:58AM 27.7450 -80.5020 170° South 458 527 40,000  Level FlightAware
11:59AM 27.6820 -80.4950 174° South 451 519 40,000  Level FlightAware
12:00PM 27.5840 -80.5110 188° South 440 506 40,000  Level FlightAware
12:00PM 27.5060 -80.5290 192° South 440 506 40,000  Level FlightAware
12:01PM 27.4060 -80.5510 191° South 441 507 40,000  Level FlightAware
12:02PM 27.3140 -80.5720 191° South 440 506 40,000  Level FlightAware
12:03PM 27.2330 -80.5900 191° South 441 507 40,000  Level FlightAware
12:03PM 27.1540 -80.6080 191° South 440 506 40,000  Level FlightAware
12:04PM 27.0750 -80.6260 191° South 439 505 40,000  Level FlightAware
12:05PM 26.9860 -80.6460 191° South 435 501 40,000  Level FlightAware
12:05PM 26.9020 -80.6650 191° South 427 491 40,000  Level FlightAware
12:06PM 26.8240 -80.6820 191° South 426 490 40,000  Level FlightAware
12:07PM 26.6480 -80.7180 190° South 426 490 40,000  Level FlightAware
12:09PM 26.5110 -80.7450 190° South 426 490 40,000  Level FlightAware
12:10PM 26.3900 -80.7690 190° South 426 490 40,000  Level FlightAware
12:11PM 26.2030 -80.8060 190° South 426 490 40,000  Level FlightAware
12:12PM 26.1310 -80.8200 190° South 426 490 40,000  Level FlightAware
12:14PM 25.9240 -80.8610 190° South 428 493 40,000  Level FlightAware
12:14PM 25.8130 -80.8820 190° South 428 493 40,000  Level FlightAware
12:16PM 25.6450 -80.9150 190° South 437 503 40,000  Level FlightAware
12:17PM 25.4850 -80.9460 190° South 428 493 40,000  Level FlightAware
12:18PM 25.3350 -80.9750 190° South 428 493 40,000  Level FlightAware
12:20PM 25.1960 -81.0020 190° South 427 491 40,000  Level FlightAware
12:21PM 25.0580 -81.0290 190° South 425 489 40,000 -60 Level FlightAware
12:22PM 24.9200 -81.0550 190° South 426 490 39,900 -960 Descending FlightAware
12:23PM 24.8170 -81.0750 190° South 423 487 38,000 -2,280 Descending FlightAware
12:24PM 24.6280 -81.1080 189° South 426 490 34,300 -2,220 Descending FlightAware
12:26PM 24.4920 -81.1280 188° South 407 468 32,000 -1,980 Descending FlightAware
12:27PM 24.3680 -81.1500 189° South 394 453 29,700 -2,040 Descending FlightAware
12:28PM 24.2360 -81.1740 189° South 391 450 27,300 -1,980 Descending FlightAware
12:29PM 24.1180 -81.1960 190° South 379 436 25,100 -1,380 Descending FlightAware
12:30PM 24.0330 -81.2110 189° South 376 433 24,500 -420 Descending FlightAware
12:31PM 23.9740 -81.2210 189° South 376 433 24,500  Level FlightAware
12:31PM 23.9160 -81.2310 189° South 376 433 24,500  Level FlightAware
12:32PM 23.8430 -81.2440 189° South 376 433 24,500  Level FlightAware
12:33PM 23.7840 -81.2540 189° South 376 433 24,500  Level FlightAware
12:38PM 23.2596 -81.2833 180° South  Level FlightAware Approximate
12:39PM 23.1468 -81.2940 190° South  Level FlightAware Approximate
12:40PM 23.1167 -81.3000 190° South  Level FlightAware Approximate
12:41PM 23.0540 -81.4032 190° South  Level Estimated
12:42PM 23.0345 -81.4353 190° South  Level Estimated
12:43PM 23.0344 -81.4353 190° South  Level Estimated
12:44PM 23.0345 -81.4353 190° South  Level Estimated
12:45PM 23.0344 -81.4353 190° South  Level Estimated
12:46PM 23.0345 -81.4353 190° South  Level Estimated
12:47PM 23.0344 -81.4353 190° South  Level Estimated
12:48PM 23.0345 -81.4353 190° South  Level Estimated
12:49PM 23.0344 -81.4353 190° South  Level Estimated
12:50PM 23.0345 -81.4353 190° South  Level Estimated
12:51PM 23.0344 -81.4353 190° South  Level Estimated
12:52PM 23.0345 -81.4353 190° South  Level Estimated
12:53PM 23.0344 -81.4353 190° South  Level Estimated
12:54PM 23.0345 -81.4353 190° South  Level Estimated
12:55PM 23.0344 -81.4353 190° South  Level Estimated
12:56PM 23.0345 -81.4353 190° South  Level Estimated
12:57PM 23.0344 -81.4353 190° South  Level Estimated
12:58PM 23.0345 -81.4353 190° South  Level Estimated
12:59PM 23.0344 -81.4353 190° South  Level Estimated